Time;durP1;ratioP1;P1;durP2;ratioP2;P2;SDS_P1;SDS_P2;PMS_P1;PMS_P2;Temp;Humidity;BMP_temperature;BMP_pressure;BME280_temperature;BME280_humidity;BME280_pressure;Samples;Min_cycle;Max_cycle;Signal;HPM_P1;HPM_P2
2022/01/15 00:00:06;;;;;;;23.93;10.57;;;2.70;99.90;;;;;;5014343;28;20383;-80
2022/01/15 00:02:51;;;;;;;23.70;11.87;;;2.80;99.90;;;;;;5016148;28;20439;-80
2022/01/15 00:05:36;;;;;;;23.00;10.83;;;2.80;99.90;;;;;;5017516;28;20395;-80
2022/01/15 00:08:22;;;;;;;26.63;9.50;;;2.80;99.90;;;;;;5015618;28;20413;-80
2022/01/15 00:11:06;;;;;;;25.87;11.70;;;2.70;99.90;;;;;;5013887;28;20801;-80
2022/01/15 00:13:57;;;;;;;18.00;10.20;;;2.60;99.90;;;;;;5017365;28;20416;-80
2022/01/15 00:16:46;;;;;;;25.03;10.10;;;2.60;99.90;;;;;;5016584;28;20431;-80
2022/01/15 00:19:41;;;;;;;23.60;11.40;;;2.70;99.90;;;;;;5014075;28;20424;-79
2022/01/15 00:22:26;;;;;;;24.80;11.90;;;2.80;99.90;;;;;;5014371;28;20411;-80
2022/01/15 00:25:11;;;;;;;20.83;10.37;;;2.70;99.90;;;;;;5015063;28;20393;-80
2022/01/15 00:27:55;;;;;;;26.17;12.63;;;2.80;99.90;;;;;;5013744;28;20380;-80
2022/01/15 00:30:40;;;;;;;27.50;11.60;;;2.90;99.90;;;;;;5011724;28;20463;-80
2022/01/15 00:33:26;;;;;;;36.10;11.63;;;3.00;99.90;;;;;;5014084;28;20447;-79
2022/01/15 00:36:10;;;;;;;29.87;12.03;;;3.00;99.90;;;;;;5013463;28;20444;-80
2022/01/15 00:38:55;;;;;;;38.33;15.10;;;3.10;99.90;;;;;;5013477;28;20465;-80
2022/01/15 00:41:39;;;;;;;26.77;10.50;;;3.10;99.90;;;;;;5013518;28;20366;-80
2022/01/15 00:44:24;;;;;;;31.30;11.10;;;3.10;99.90;;;;;;5012909;28;20427;-80
2022/01/15 00:47:09;;;;;;;27.97;11.70;;;3.10;99.90;;;;;;5013853;28;20389;-79
2022/01/15 00:49:54;;;;;;;27.13;11.47;;;3.20;99.90;;;;;;5013680;28;20379;-80
2022/01/15 00:52:38;;;;;;;23.03;9.13;;;3.10;99.90;;;;;;5013453;28;20432;-79
2022/01/15 00:55:23;;;;;;;27.13;10.67;;;3.10;99.90;;;;;;5014126;28;20495;-79
2022/01/15 00:58:08;;;;;;;22.27;11.47;;;3.20;99.90;;;;;;5013913;28;20447;-79
2022/01/15 01:00:52;;;;;;;24.60;11.00;;;3.20;99.90;;;;;;5014085;28;20371;-80
2022/01/15 01:03:36;;;;;;;31.00;11.63;;;3.20;99.90;;;;;;5012724;28;20422;-79
2022/01/15 01:06:21;;;;;;;23.77;11.87;;;3.20;99.90;;;;;;5013000;28;20469;-79
2022/01/15 01:09:06;;;;;;;29.63;12.67;;;3.20;99.90;;;;;;5012783;28;20865;-80
2022/01/15 01:11:56;;;;;;;20.60;10.70;;;3.20;99.90;;;;;;5013576;28;20412;-79
2022/01/15 01:23:43;;;;;;;19.20;9.80;;;3.20;99.90;;;;;;5012638;28;20507;-80
2022/01/15 01:26:34;;;;;;;20.97;11.40;;;3.10;99.90;;;;;;5012737;28;20393;-79
2022/01/15 01:29:35;;;;;;;27.13;11.70;;;3.20;99.90;;;;;;5012026;28;20372;-80
2022/01/15 01:35:29;;;;;;;19.77;11.30;;;3.20;99.90;;;;;;5012415;28;20379;-79
2022/01/15 01:38:26;;;;;;;32.20;11.13;;;3.20;99.90;;;;;;5011936;28;20808;-80
2022/01/15 01:41:16;;;;;;;37.73;15.50;;;3.30;99.90;;;;;;5012538;28;20400;-79
2022/01/15 01:44:02;;;;;;;17.93;9.83;;;3.30;99.90;;;;;;5011964;28;20534;-80
2022/01/15 01:46:59;;;;;;;31.10;12.73;;;3.30;99.90;;;;;;5012274;28;20374;-79
2022/01/15 01:49:43;;;;;;;35.13;16.13;;;3.40;99.90;;;;;;5012117;28;20450;-80
2022/01/15 01:52:27;;;;;;;20.03;9.40;;;3.30;99.90;;;;;;5011972;28;20388;-79
2022/01/15 01:55:13;;;;;;;23.63;10.43;;;3.30;99.90;;;;;;5012901;28;20536;-80
2022/01/15 01:57:59;;;;;;;19.87;11.37;;;3.30;99.90;;;;;;5012291;28;20813;-79
2022/01/15 02:00:43;;;;;;;23.10;10.77;;;3.40;99.90;;;;;;5011150;28;20423;-79
2022/01/15 02:03:28;;;;;;;21.00;10.10;;;3.40;99.90;;;;;;5011794;28;20455;-79
2022/01/15 02:06:13;;;;;;;21.47;12.87;;;3.30;99.90;;;;;;5012445;28;20402;-80
2022/01/15 02:08:58;;;;;;;27.30;11.80;;;3.30;99.90;;;;;;5012599;28;20445;-79
2022/01/15 02:11:43;;;;;;;27.20;11.47;;;3.40;99.90;;;;;;5011868;28;20371;-79
2022/01/15 02:14:29;;;;;;;28.07;11.20;;;3.40;99.90;;;;;;5012161;28;20436;-79
2022/01/15 02:17:19;;;;;;;29.10;10.67;;;3.40;99.90;;;;;;5012617;28;20370;-79
2022/01/15 02:20:34;;;;;;;20.90;10.77;;;3.50;99.90;;;;;;5012189;28;20383;-79
2022/01/15 02:23:34;;;;;;;21.27;10.17;;;3.50;99.90;;;;;;5012311;28;20490;-80
2022/01/15 02:26:21;;;;;;;24.23;10.27;;;3.50;99.90;;;;;;5012713;28;20385;-79
2022/01/15 02:29:07;;;;;;;17.80;8.83;;;3.50;99.90;;;;;;5011902;28;20364;-80
2022/01/15 02:31:53;;;;;;;19.67;13.07;;;3.50;99.90;;;;;;5012628;28;20395;-80
2022/01/15 02:34:37;;;;;;;21.87;11.07;;;3.50;99.90;;;;;;5011780;28;20384;-80
2022/01/15 02:37:22;;;;;;;24.10;11.47;;;3.40;99.90;;;;;;5012202;28;20398;-80
2022/01/15 02:40:11;;;;;;;27.53;12.23;;;3.40;99.90;;;;;;5013144;28;20436;-80
2022/01/15 02:42:56;;;;;;;31.00;10.17;;;3.30;99.90;;;;;;5015685;28;20477;-80
2022/01/15 02:45:44;;;;;;;27.57;14.47;;;3.40;99.90;;;;;;5015562;28;20389;-80
2022/01/15 02:48:29;;;;;;;20.77;9.40;;;3.40;99.90;;;;;;5015912;28;20404;-80
2022/01/15 02:51:15;;;;;;;23.17;10.93;;;3.40;99.90;;;;;;5016004;28;20390;-79
2022/01/15 02:54:00;;;;;;;19.70;11.93;;;3.40;99.90;;;;;;5016044;28;20383;-79
2022/01/15 02:56:45;;;;;;;28.77;12.23;;;3.40;99.90;;;;;;5015044;28;20371;-80
2022/01/15 02:59:30;;;;;;;21.40;11.50;;;3.30;99.90;;;;;;5016005;28;20395;-80
2022/01/15 03:02:14;;;;;;;26.30;12.37;;;3.40;99.90;;;;;;5016541;28;20444;-80
2022/01/15 03:04:59;;;;;;;27.97;10.43;;;3.40;99.90;;;;;;5016583;28;20397;-80
2022/01/15 03:07:44;;;;;;;25.47;10.80;;;3.50;99.90;;;;;;5016272;28;20360;-79
2022/01/15 03:10:29;;;;;;;20.27;10.73;;;3.50;99.90;;;;;;5020596;28;20484;-80
2022/01/15 03:13:14;;;;;;;27.03;11.97;;;3.50;99.90;;;;;;5016779;28;20385;-80
2022/01/15 03:15:59;;;;;;;22.30;10.70;;;3.50;99.90;;;;;;5015577;28;20359;-80
2022/01/15 03:18:43;;;;;;;26.33;10.93;;;3.50;99.90;;;;;;5015121;28;20711;-80
2022/01/15 03:21:28;;;;;;;17.43;10.00;;;3.50;99.90;;;;;;5015217;28;20419;-80
2022/01/15 03:24:12;;;;;;;24.90;12.17;;;3.40;99.90;;;;;;5015579;28;20499;-80
2022/01/15 03:26:57;;;;;;;24.20;12.47;;;3.40;99.90;;;;;;5014729;28;20426;-80
2022/01/15 03:29:43;;;;;;;20.60;10.10;;;3.40;99.90;;;;;;5014679;28;20404;-80
2022/01/15 03:32:27;;;;;;;27.37;12.47;;;3.50;99.90;;;;;;5015954;28;20381;-80
2022/01/15 03:35:14;;;;;;;27.57;10.07;;;3.50;99.90;;;;;;5014928;28;20375;-80
2022/01/15 03:37:58;;;;;;;28.40;11.13;;;3.40;99.90;;;;;;5015021;28;20444;-80
2022/01/15 03:40:43;;;;;;;29.30;14.23;;;3.50;99.90;;;;;;5014856;28;20383;-79
2022/01/15 03:43:27;;;;;;;28.57;15.53;;;3.50;99.90;;;;;;5015742;28;20468;-80
2022/01/15 03:46:12;;;;;;;25.67;11.50;;;3.50;99.90;;;;;;5014796;28;20434;-80
2022/01/15 03:48:57;;;;;;;35.13;14.73;;;3.60;99.90;;;;;;5015303;28;20404;-80
2022/01/15 03:51:42;;;;;;;32.47;13.93;;;3.60;99.90;;;;;;5014358;28;20428;-80
2022/01/15 03:54:26;;;;;;;23.87;11.70;;;3.60;99.90;;;;;;5014913;28;20466;-80
2022/01/15 03:57:11;;;;;;;20.57;10.93;;;3.60;99.90;;;;;;5014952;28;20431;-80
2022/01/15 03:59:55;;;;;;;23.93;10.07;;;3.50;99.90;;;;;;5014378;28;20409;-79
2022/01/15 04:02:41;;;;;;;27.33;10.80;;;3.50;99.90;;;;;;5014940;28;20452;-80
2022/01/15 04:05:26;;;;;;;21.80;12.77;;;3.50;99.90;;;;;;5014912;28;20397;-80
2022/01/15 04:08:11;;;;;;;23.70;9.77;;;3.50;99.90;;;;;;5015105;28;20419;-80
2022/01/15 04:10:56;;;;;;;14.00;8.60;;;3.50;99.90;;;;;;5015260;28;20444;-80
2022/01/15 04:13:41;;;;;;;19.87;10.60;;;3.50;99.90;;;;;;5015077;28;20370;-80
2022/01/15 04:16:25;;;;;;;22.47;10.87;;;3.50;99.90;;;;;;5017830;28;20379;-78
2022/01/15 04:19:10;;;;;;;22.40;9.67;;;3.50;99.90;;;;;;5019157;28;20382;-78
2022/01/15 04:21:55;;;;;;;23.47;11.03;;;3.50;99.90;;;;;;5018618;28;20442;-78
2022/01/15 04:24:39;;;;;;;13.50;8.87;;;3.50;99.90;;;;;;5017544;28;20498;-80
2022/01/15 04:27:24;;;;;;;26.03;11.90;;;3.50;99.90;;;;;;5014710;28;20448;-80
2022/01/15 04:30:12;;;;;;;17.83;10.50;;;3.50;99.90;;;;;;5014047;28;20417;-80
2022/01/15 04:32:56;;;;;;;23.87;11.77;;;3.50;99.90;;;;;;5014829;28;20411;-80
2022/01/15 04:35:41;;;;;;;19.60;10.20;;;3.40;99.90;;;;;;5014638;28;20829;-80
2022/01/15 04:38:26;;;;;;;18.17;10.60;;;3.50;99.90;;;;;;5013746;28;20453;-80
2022/01/15 04:41:11;;;;;;;22.30;10.90;;;3.50;99.90;;;;;;5013713;28;20368;-80
2022/01/15 04:43:55;;;;;;;17.83;10.63;;;3.50;99.90;;;;;;5013945;28;20495;-79
2022/01/15 04:46:40;;;;;;;16.43;8.17;;;3.50;99.90;;;;;;5010132;28;20889;-80
2022/01/15 04:49:25;;;;;;;27.00;11.40;;;3.50;99.90;;;;;;4994175;28;20373;-80
2022/01/15 04:52:10;;;;;;;21.33;8.23;;;3.50;99.90;;;;;;4994148;28;20767;-80
2022/01/15 04:54:54;;;;;;;17.60;10.23;;;3.50;99.90;;;;;;4994443;28;20397;-79
2022/01/15 04:57:40;;;;;;;17.77;9.87;;;3.50;99.90;;;;;;4993664;28;20430;-79
2022/01/15 05:00:24;;;;;;;17.47;9.93;;;3.50;99.90;;;;;;4993225;28;20425;-80
2022/01/15 05:03:09;;;;;;;22.77;12.53;;;3.30;99.90;;;;;;4993400;28;20428;-80
2022/01/15 05:05:54;;;;;;;18.87;10.80;;;3.40;99.90;;;;;;4993716;28;20414;-80
2022/01/15 05:08:40;;;;;;;15.67;8.53;;;3.40;99.90;;;;;;4993713;28;20413;-79
2022/01/15 05:11:30;;;;;;;19.20;9.53;;;3.50;99.90;;;;;;4993458;28;20445;-79
2022/01/15 05:14:17;;;;;;;29.95;15.07;;;3.50;99.90;;;;;;4992577;28;20404;-79
2022/01/15 05:17:03;;;;;;;22.93;11.07;;;3.40;99.90;;;;;;4993316;28;20226;-80
2022/01/15 05:19:47;;;;;;;20.80;9.40;;;3.50;99.90;;;;;;4993608;28;20465;-80
2022/01/15 05:22:33;;;;;;;14.80;9.20;;;3.30;99.90;;;;;;4993989;28;20408;-80
2022/01/15 05:25:18;;;;;;;21.47;10.90;;;3.00;99.90;;;;;;4993894;28;20454;-80
2022/01/15 05:28:03;;;;;;;17.17;8.60;;;3.00;99.90;;;;;;4993495;28;20380;-80
2022/01/15 05:30:48;;;;;;;26.17;12.13;;;3.10;99.90;;;;;;4993349;28;20462;-80
2022/01/15 05:33:33;;;;;;;23.70;11.27;;;3.00;99.90;;;;;;4992820;28;20376;-80
2022/01/15 05:36:18;;;;;;;17.77;10.47;;;2.70;99.90;;;;;;4993222;28;20441;-80
2022/01/15 05:39:03;;;;;;;17.37;9.13;;;2.80;99.90;;;;;;4993721;28;20454;-80
2022/01/15 05:41:48;;;;;;;19.67;9.30;;;2.90;99.90;;;;;;4992984;28;20364;-80
2022/01/15 05:44:33;;;;;;;28.03;15.77;;;3.00;99.90;;;;;;4993064;28;20435;-80
2022/01/15 05:47:18;;;;;;;28.73;12.20;;;3.00;99.90;;;;;;4991417;28;20365;-80
2022/01/15 05:50:04;;;;;;;22.17;9.47;;;3.20;99.90;;;;;;4993252;28;20400;-80
2022/01/15 05:52:50;;;;;;;20.10;11.70;;;3.30;99.90;;;;;;4992632;28;20389;-79
2022/01/15 05:55:34;;;;;;;20.00;8.83;;;3.00;99.90;;;;;;4993948;28;20371;-80
2022/01/15 05:58:19;;;;;;;20.50;9.90;;;2.90;99.90;;;;;;4996298;28;20996;-80
2022/01/15 06:01:04;;;;;;;28.33;10.67;;;2.90;99.90;;;;;;4996522;28;20453;-80
2022/01/15 06:03:48;;;;;;;19.13;11.40;;;2.90;99.90;;;;;;4998528;28;20442;-79
2022/01/15 06:06:33;;;;;;;17.80;10.40;;;3.10;99.90;;;;;;4994176;28;20475;-80
2022/01/15 06:09:18;;;;;;;28.23;12.90;;;3.10;99.90;;;;;;4992447;28;20369;-80
2022/01/15 06:12:03;;;;;;;27.73;10.80;;;3.20;99.90;;;;;;4992728;28;20375;-80
2022/01/15 06:14:48;;;;;;;20.03;10.20;;;3.30;99.90;;;;;;4992596;28;20372;-80
2022/01/15 06:17:32;;;;;;;20.50;10.83;;;3.40;99.90;;;;;;4991989;28;20485;-80
2022/01/15 06:20:17;;;;;;;17.43;10.43;;;3.30;99.90;;;;;;4992581;28;20385;-80
2022/01/15 06:23:01;;;;;;;21.60;10.33;;;3.00;99.90;;;;;;4978260;28;20550;-80
2022/01/15 06:25:46;;;;;;;25.90;11.03;;;2.60;99.90;;;;;;4992947;28;20364;-80
2022/01/15 06:28:31;;;;;;;24.73;10.30;;;2.50;99.90;;;;;;4994024;28;20369;-80
2022/01/15 06:31:16;;;;;;;15.90;10.90;;;2.40;99.90;;;;;;4999059;28;20421;-79
2022/01/15 06:34:01;;;;;;;21.63;10.07;;;2.30;99.90;;;;;;4998891;28;20414;-79
2022/01/15 06:36:47;;;;;;;18.93;10.93;;;2.50;99.90;;;;;;4998998;28;20401;-79
2022/01/15 06:39:33;;;;;;;12.63;8.90;;;2.30;99.90;;;;;;4995480;28;20376;-80
2022/01/15 06:42:17;;;;;;;41.13;13.37;;;2.40;99.90;;;;;;4991872;28;20412;-79
2022/01/15 06:45:04;;;;;;;19.37;9.50;;;2.20;99.90;;;;;;4991058;28;20564;-79
2022/01/15 06:47:49;;;;;;;25.43;10.80;;;2.20;99.90;;;;;;4992998;28;20372;-80
2022/01/15 06:50:34;;;;;;;23.43;9.03;;;2.10;99.90;;;;;;4992879;28;20409;-80
2022/01/15 06:53:18;;;;;;;27.27;12.60;;;2.10;99.90;;;;;;4992566;28;20414;-80
2022/01/15 06:56:03;;;;;;;17.90;12.00;;;2.20;99.90;;;;;;4992349;28;20415;-80
2022/01/15 06:58:47;;;;;;;21.43;12.73;;;2.20;99.90;;;;;;4992408;28;20443;-80
2022/01/15 07:01:32;;;;;;;25.73;9.57;;;2.30;99.90;;;;;;4992568;28;20368;-80
2022/01/15 07:04:16;;;;;;;23.47;11.30;;;2.40;99.90;;;;;;4991266;28;20488;-80
2022/01/15 07:07:01;;;;;;;21.83;11.40;;;2.40;99.90;;;;;;4990474;28;20890;-80
2022/01/15 07:09:46;;;;;;;31.33;14.80;;;2.40;99.90;;;;;;4991743;28;20401;-80
2022/01/15 07:12:31;;;;;;;23.57;9.83;;;2.60;99.90;;;;;;4992150;28;20449;-80
2022/01/15 07:15:15;;;;;;;28.50;13.50;;;2.40;99.90;;;;;;4992074;28;20458;-80
2022/01/15 07:18:00;;;;;;;31.13;10.97;;;2.50;99.90;;;;;;4992054;28;20372;-80
2022/01/15 07:20:45;;;;;;;18.90;12.40;;;2.40;99.90;;;;;;4992287;28;20439;-80
2022/01/15 07:23:30;;;;;;;37.80;15.80;;;2.40;99.90;;;;;;4991849;28;20434;-80
2022/01/15 07:26:14;;;;;;;32.70;15.40;;;2.30;99.90;;;;;;4991333;28;20431;-80
2022/01/15 07:28:59;;;;;;;32.87;10.63;;;2.30;99.90;;;;;;4995683;28;20453;-80
2022/01/15 07:31:46;;;;;;;36.37;12.97;;;2.40;99.90;;;;;;4995938;28;20364;-80
2022/01/15 07:34:30;;;;;;;27.83;11.63;;;2.30;99.90;;;;;;4995409;28;20703;-80
2022/01/15 07:37:15;;;;;;;27.50;10.90;;;2.20;99.90;;;;;;4995523;28;20397;-80
2022/01/15 07:40:00;;;;;;;26.20;13.23;;;2.20;99.90;;;;;;4995448;28;20372;-80
2022/01/15 07:42:44;;;;;;;21.97;15.37;;;2.20;99.90;;;;;;4995688;28;20450;-80
2022/01/15 07:45:29;;;;;;;34.63;13.43;;;2.30;99.90;;;;;;4996449;28;20401;-79
2022/01/15 07:48:14;;;;;;;29.00;12.53;;;2.30;99.90;;;;;;4996302;28;20425;-80
2022/01/15 07:50:58;;;;;;;32.83;14.70;;;2.20;99.90;;;;;;4995908;28;20372;-80
2022/01/15 07:53:43;;;;;;;30.10;14.67;;;2.30;99.90;;;;;;4995829;28;20662;-79
2022/01/15 07:56:28;;;;;;;25.80;13.00;;;2.30;99.90;;;;;;4996192;28;20399;-80
2022/01/15 07:59:13;;;;;;;29.13;13.30;;;2.20;99.90;;;;;;4995202;28;20472;-79
2022/01/15 08:01:57;;;;;;;37.50;11.37;;;2.10;99.90;;;;;;4993778;28;20486;-78
2022/01/15 08:04:42;;;;;;;19.30;10.63;;;2.30;99.90;;;;;;4994873;28;20428;-79
2022/01/15 08:07:27;;;;;;;20.00;11.00;;;2.20;99.90;;;;;;4994323;28;20397;-79
2022/01/15 08:10:12;;;;;;;35.07;15.73;;;2.20;99.90;;;;;;4989949;28;20390;-80
2022/01/15 08:12:56;;;;;;;31.27;13.60;;;2.40;99.90;;;;;;4991051;28;20401;-79
2022/01/15 08:15:41;;;;;;;31.43;13.70;;;2.50;99.90;;;;;;4987444;28;20388;-79
2022/01/15 08:18:26;;;;;;;27.33;12.17;;;2.60;99.90;;;;;;4987607;28;20409;-81
2022/01/15 08:21:10;;;;;;;33.97;12.47;;;2.60;99.90;;;;;;4990898;28;20372;-80
2022/01/15 08:23:55;;;;;;;23.93;11.30;;;2.50;99.90;;;;;;4994407;28;20449;-80
2022/01/15 08:26:40;;;;;;;34.73;14.70;;;2.50;99.90;;;;;;4992981;28;20434;-80
2022/01/15 08:29:24;;;;;;;41.87;13.23;;;2.60;99.90;;;;;;4993914;28;20380;-80
2022/01/15 08:32:09;;;;;;;30.10;14.50;;;2.70;99.90;;;;;;4993995;28;20398;-79
2022/01/15 08:34:54;;;;;;;29.63;13.90;;;2.80;99.90;;;;;;4994364;28;20449;-80
2022/01/15 08:37:39;;;;;;;32.57;11.73;;;2.70;99.90;;;;;;4994314;28;20421;-80
2022/01/15 08:40:24;;;;;;;38.73;15.30;;;2.80;99.90;;;;;;4993776;28;20376;-80
2022/01/15 08:43:09;;;;;;;36.53;14.50;;;2.80;99.90;;;;;;4994001;28;20818;-80
2022/01/15 08:45:53;;;;;;;39.33;16.33;;;2.80;99.90;;;;;;4994273;28;20420;-80
2022/01/15 08:48:39;;;;;;;41.13;13.27;;;2.60;99.90;;;;;;4992425;28;20421;-79
2022/01/15 08:51:24;;;;;;;33.63;13.13;;;2.80;99.90;;;;;;4989290;28;20410;-79
2022/01/15 08:54:08;;;;;;;37.33;17.57;;;3.00;99.90;;;;;;4990823;28;20500;-79
2022/01/15 08:56:52;;;;;;;44.60;16.37;;;2.80;99.90;;;;;;4995337;28;20467;-78
2022/01/15 08:59:38;;;;;;;35.27;12.97;;;2.60;99.90;;;;;;4994583;28;20417;-80
2022/01/15 09:02:23;;;;;;;35.90;16.37;;;2.70;99.90;;;;;;4994155;28;20481;-80
2022/01/15 09:05:08;;;;;;;30.67;13.37;;;2.80;99.90;;;;;;4993047;28;20376;-80
2022/01/15 09:07:54;;;;;;;44.40;15.43;;;2.90;99.90;;;;;;4993398;28;20372;-79
2022/01/15 09:10:41;;;;;;;44.40;16.47;;;2.90;99.90;;;;;;4992753;28;20361;-79
2022/01/15 09:13:27;;;;;;;31.80;11.13;;;2.70;99.90;;;;;;4992525;28;20392;-80
2022/01/15 09:16:11;;;;;;;34.63;14.90;;;2.90;99.90;;;;;;4993252;28;20386;-80
2022/01/15 09:18:57;;;;;;;44.43;18.23;;;3.20;99.90;;;;;;4992711;28;20376;-80
2022/01/15 09:21:42;;;;;;;35.93;14.20;;;3.50;99.90;;;;;;4991111;28;20468;-80
2022/01/15 09:24:26;;;;;;;34.53;14.00;;;3.80;99.90;;;;;;4991510;28;20490;-80
2022/01/15 09:30:16;;;;;;;37.67;17.00;;;3.60;99.90;;;;;;4991204;28;20356;-79
2022/01/15 09:33:02;;;;;;;33.07;14.10;;;3.90;99.90;;;;;;4991317;28;20389;-80
2022/01/15 09:35:46;;;;;;;38.93;14.60;;;4.10;99.90;;;;;;4992258;28;20367;-80
2022/01/15 09:38:32;;;;;;;37.53;18.53;;;4.20;99.90;;;;;;4987155;28;20373;-80
2022/01/15 09:41:20;;;;;;;41.53;19.27;;;4.30;99.90;;;;;;4991162;28;20440;-80
2022/01/15 09:44:05;;;;;;;33.10;13.10;;;4.40;99.90;;;;;;4991508;28;20427;-80
2022/01/15 09:46:50;;;;;;;37.47;17.90;;;4.50;99.90;;;;;;4990178;28;20398;-80
2022/01/15 09:49:35;;;;;;;31.33;15.53;;;4.50;99.90;;;;;;4992329;28;20367;-80
2022/01/15 09:52:20;;;;;;;37.40;15.87;;;4.60;99.90;;;;;;4985883;28;20426;-78
2022/01/15 09:55:09;;;;;;;44.97;16.23;;;4.50;99.90;;;;;;4984599;28;20393;-79
2022/01/15 09:57:54;;;;;;;37.83;14.63;;;4.40;99.90;;;;;;4984607;28;20504;-80
2022/01/15 10:00:39;;;;;;;39.10;16.70;;;4.50;99.90;;;;;;4988146;28;20422;-79
2022/01/15 10:03:24;;;;;;;26.20;11.73;;;4.50;99.90;;;;;;4989751;28;20785;-79
2022/01/15 10:06:08;;;;;;;30.97;16.20;;;4.60;99.90;;;;;;4990123;28;20394;-80
2022/01/15 10:09:08;;;;;;;27.63;14.30;;;4.50;99.90;;;;;;4992018;28;20530;-80
2022/01/15 10:11:52;;;;;;;28.20;13.67;;;4.50;99.90;;;;;;4991683;28;20412;-80
2022/01/15 10:14:41;;;;;;;32.63;13.27;;;4.50;99.90;;;;;;4991991;28;20406;-80
2022/01/15 10:17:29;;;;;;;23.70;12.50;;;4.60;99.90;;;;;;4991394;28;20360;-80
2022/01/15 10:20:18;;;;;;;23.13;11.17;;;4.70;99.90;;;;;;4991919;28;20384;-80
2022/01/15 10:23:15;;;;;;;30.50;13.97;;;4.90;99.90;;;;;;4991688;28;20468;-80
2022/01/15 10:26:12;;;;;;;23.00;14.50;;;4.90;99.90;;;;;;4992756;28;20412;-81
2022/01/15 10:29:00;;;;;;;24.83;15.07;;;5.00;99.90;;;;;;4990750;28;20462;-80
2022/01/15 10:31:44;;;;;;;24.27;11.57;;;5.20;99.90;;;;;;4991643;28;20405;-80
2022/01/15 10:34:33;;;;;;;19.20;12.50;;;5.30;99.90;;;;;;4991229;28;20446;-80
2022/01/15 10:37:22;;;;;;;22.20;13.33;;;5.20;99.90;;;;;;4991764;28;20404;-79
2022/01/15 10:40:11;;;;;;;22.40;10.93;;;5.40;99.90;;;;;;4992641;28;20432;-80
2022/01/15 10:42:58;;;;;;;19.73;11.23;;;5.40;99.90;;;;;;4991290;28;20401;-80
2022/01/15 10:45:49;;;;;;;24.10;12.87;;;5.40;99.90;;;;;;4991209;28;20373;-79
2022/01/15 10:48:35;;;;;;;17.30;11.07;;;5.30;99.90;;;;;;4994309;28;20364;-80
2022/01/15 10:51:22;;;;;;;20.37;11.27;;;5.40;99.90;;;;;;4996583;28;20384;-79
2022/01/15 10:54:06;;;;;;;15.53;9.40;;;5.20;99.90;;;;;;4995177;28;20388;-79
2022/01/15 10:57:06;;;;;;;19.93;11.67;;;5.10;99.90;;;;;;4995244;28;20376;-80
2022/01/15 11:00:00;;;;;;;21.00;11.60;;;4.70;99.90;;;;;;4989715;28;20384;-79
2022/01/15 11:02:48;;;;;;;17.70;10.53;;;4.90;99.90;;;;;;4992220;28;20420;-80
2022/01/15 11:05:37;;;;;;;15.13;10.77;;;5.10;99.90;;;;;;4994436;28;20437;-80
2022/01/15 11:08:26;;;;;;;18.00;11.53;;;4.80;99.90;;;;;;4993763;28;20389;-80
2022/01/15 11:11:14;;;;;;;18.20;11.33;;;4.90;99.90;;;;;;4994202;28;20483;-80
2022/01/15 11:13:59;;;;;;;21.77;11.40;;;5.10;99.90;;;;;;4993907;28;20393;-78
2022/01/15 11:16:44;;;;;;;18.83;8.93;;;4.90;99.90;;;;;;4996165;28;20394;-80
2022/01/15 11:19:31;;;;;;;18.50;10.23;;;4.20;99.90;;;;;;4994318;28;20368;-79
2022/01/15 11:22:21;;;;;;;16.60;11.37;;;4.00;99.90;;;;;;4994984;28;20414;-80
2022/01/15 11:25:06;;;;;;;21.17;11.60;;;4.10;99.90;;;;;;4993892;28;20444;-79
2022/01/15 11:27:51;;;;;;;20.13;9.73;;;4.60;99.90;;;;;;4992691;28;20411;-78
2022/01/15 11:30:36;;;;;;;17.90;11.07;;;4.80;99.90;;;;;;4990215;28;20503;-79
2022/01/15 11:33:26;;;;;;;13.97;8.90;;;4.70;99.90;;;;;;4994077;28;20404;-79
2022/01/15 11:36:33;;;;;;;19.37;10.10;;;4.40;99.90;;;;;;4992271;28;20392;-79
2022/01/15 11:39:33;;;;;;;13.90;8.93;;;4.10;99.90;;;;;;4987435;28;20431;-77
2022/01/15 11:42:35;;;;;;;18.07;10.30;;;4.40;99.90;;;;;;4989846;28;20442;-79
2022/01/15 11:45:35;;;;;;;16.77;9.00;;;4.00;99.90;;;;;;4991088;28;20405;-80
2022/01/15 11:48:23;;;;;;;16.07;9.13;;;4.40;99.90;;;;;;4992465;28;20398;-79
2022/01/15 11:51:25;;;;;;;18.80;10.80;;;4.60;99.90;;;;;;4995917;28;20393;-80
2022/01/15 11:54:11;;;;;;;14.37;9.43;;;4.80;99.90;;;;;;4996239;28;20368;-80
2022/01/15 11:56:55;;;;;;;12.20;7.40;;;4.90;99.90;;;;;;4995129;28;20467;-80
2022/01/15 12:00:01;;;;;;;15.27;7.63;;;5.00;99.90;;;;;;4995922;28;20906;-80
2022/01/15 12:03:12;;;;;;;11.70;7.97;;;5.10;99.90;;;;;;4994465;28;20393;-80
2022/01/15 12:06:00;;;;;;;7.93;5.23;;;5.20;99.90;;;;;;4994784;28;20400;-80
2022/01/15 12:08:44;;;;;;;4.03;3.30;;;5.40;99.90;;;;;;4988042;28;20444;-79
2022/01/15 12:11:33;;;;;;;5.70;3.93;;;5.10;99.90;;;;;;4988669;28;20361;-79
2022/01/15 12:14:50;;;;;;;6.67;4.93;;;4.70;99.90;;;;;;4987393;28;20376;-79
2022/01/15 12:17:39;;;;;;;6.60;4.57;;;4.60;99.90;;;;;;4989548;28;20368;-79
2022/01/15 12:20:34;;;;;;;3.33;2.70;;;4.80;99.90;;;;;;4993818;28;20376;-79
2022/01/15 12:23:27;;;;;;;5.33;3.20;;;4.80;99.90;;;;;;4987390;28;20427;-79
2022/01/15 12:26:12;;;;;;;5.40;3.40;;;4.60;99.90;;;;;;4990148;28;20415;-79
2022/01/15 12:28:56;;;;;;;3.37;3.07;;;4.50;99.90;;;;;;4987441;28;20433;-79
2022/01/15 12:31:49;;;;;;;3.00;2.47;;;4.50;99.90;;;;;;4972335;28;20377;-80
2022/01/15 12:34:34;;;;;;;5.73;3.23;;;4.40;99.90;;;;;;4987005;28;20466;-78
2022/01/15 12:37:18;;;;;;;4.63;2.60;;;4.30;99.90;;;;;;4985289;28;20453;-81
2022/01/15 12:40:06;;;;;;;2.93;2.60;;;4.20;99.90;;;;;;4987846;28;20371;-79
2022/01/15 12:42:55;;;;;;;3.50;2.90;;;4.30;99.90;;;;;;4991081;28;20402;-80
2022/01/15 12:45:40;;;;;;;2.67;2.47;;;4.40;99.90;;;;;;4987401;28;20372;-79
2022/01/15 12:48:27;;;;;;;2.60;2.40;;;4.80;99.90;;;;;;4992287;28;20935;-80
2022/01/15 12:51:20;;;;;;;2.30;2.10;;;4.90;99.90;;;;;;4991607;28;20742;-81
2022/01/15 12:54:05;;;;;;;2.63;2.43;;;4.90;99.90;;;;;;4991115;28;20379;-80
2022/01/15 12:56:49;;;;;;;4.07;3.67;;;4.80;99.90;;;;;;4991953;28;20373;-80
2022/01/15 12:59:36;;;;;;;3.40;3.10;;;4.80;99.90;;;;;;4991673;28;20372;-79
2022/01/15 13:02:28;;;;;;;2.40;2.20;;;4.90;99.90;;;;;;4977048;28;20368;-80
2022/01/15 13:05:13;;;;;;;2.93;2.40;;;4.30;99.90;;;;;;4990393;28;20392;-79
2022/01/15 13:08:05;;;;;;;3.23;2.73;;;4.30;99.90;;;;;;4992346;28;20376;-79
2022/01/15 13:10:56;;;;;;;5.00;3.47;;;4.20;99.90;;;;;;4992373;28;20360;-80
2022/01/15 13:13:43;;;;;;;8.30;3.20;;;4.40;99.90;;;;;;4992283;28;20401;-79
2022/01/15 13:16:30;;;;;;;4.50;4.00;;;4.30;99.90;;;;;;4992528;28;20368;-79
2022/01/15 13:19:15;;;;;;;5.70;3.00;;;4.40;99.90;;;;;;4991325;28;20377;-78
2022/01/15 13:21:59;;;;;;;5.47;3.33;;;4.50;99.90;;;;;;4990058;28;20403;-79
2022/01/15 13:24:44;;;;;;;6.30;3.67;;;4.40;99.90;;;;;;4989680;28;20431;-80
2022/01/15 13:27:29;;;;;;;3.90;3.27;;;4.40;99.90;;;;;;4984327;28;20379;-78
2022/01/15 13:30:14;;;;;;;7.10;2.90;;;4.40;99.90;;;;;;4986707;28;20485;-78
2022/01/15 13:33:02;;;;;;;3.23;2.93;;;4.40;99.90;;;;;;4990614;28;20402;-79
2022/01/15 13:35:47;;;;;;;3.77;2.83;;;4.20;99.90;;;;;;4984162;28;20368;-81
2022/01/15 13:38:33;;;;;;;5.37;3.27;;;4.40;99.90;;;;;;4986113;28;20417;-79
2022/01/15 13:41:22;;;;;;;3.20;3.00;;;4.30;99.90;;;;;;4989238;28;20409;-80
2022/01/15 13:44:10;;;;;;;3.30;2.40;;;4.00;99.90;;;;;;4991631;28;20445;-79
2022/01/15 13:46:55;;;;;;;3.40;2.93;;;4.20;99.90;;;;;;4990589;28;20422;-80
2022/01/15 13:55:40;;;;;;;3.90;2.93;;;4.40;99.90;;;;;;4986070;28;20379;-80
2022/01/15 13:58:25;;;;;;;8.00;3.90;;;4.60;99.90;;;;;;4987572;28;20472;-79
2022/01/15 14:01:22;;;;;;;7.53;2.97;;;4.50;99.90;;;;;;4991357;28;20409;-79
2022/01/15 14:04:39;;;;;;;7.63;4.67;;;4.30;99.90;;;;;;4991988;28;20440;-80
2022/01/15 14:07:26;;;;;;;5.80;4.00;;;4.30;99.90;;;;;;4991737;28;20442;-79
2022/01/15 14:10:18;;;;;;;5.63;5.03;;;4.50;99.90;;;;;;4992316;28;20376;-80
2022/01/15 14:13:06;;;;;;;5.33;4.10;;;4.60;99.90;;;;;;4991795;28;20485;-79
2022/01/15 14:15:51;;;;;;;3.80;3.20;;;4.30;99.90;;;;;;4991832;28;20372;-79
2022/01/15 14:18:46;;;;;;;9.17;5.07;;;4.20;99.90;;;;;;4990994;28;20425;-79
2022/01/15 14:24:26;;;;;;;6.73;4.43;;;4.20;99.90;;;;;;4991297;28;20471;-80
2022/01/15 14:27:22;;;;;;;4.53;3.20;;;4.30;99.90;;;;;;4990768;28;20409;-79
2022/01/15 14:30:07;;;;;;;3.60;2.60;;;4.40;99.90;;;;;;4984429;28;20372;-78
2022/01/15 14:33:00;;;;;;;4.47;3.30;;;4.20;99.90;;;;;;4982990;28;20434;-79
2022/01/15 14:35:45;;;;;;;12.20;5.80;;;4.20;99.90;;;;;;4991237;28;20452;-80
2022/01/15 14:38:30;;;;;;;3.77;3.47;;;4.20;99.90;;;;;;4993563;28;20397;-79
2022/01/15 14:41:14;;;;;;;9.73;4.40;;;4.20;99.90;;;;;;4991235;28;20399;-79
2022/01/15 14:43:59;;;;;;;5.93;4.27;;;4.30;99.90;;;;;;4991420;28;20549;-80